Time;durP1;ratioP1;P1;durP2;ratioP2;P2;SDS_P1;SDS_P2;PMS_P1;PMS_P2;Temp;Humidity;BMP_temperature;BMP_pressure;BME280_temperature;BME280_humidity;BME280_pressure;Samples;Min_cycle;Max_cycle;Signal;HPM_P1;HPM_P2
2023/01/25 00:02:54;;;;;;;3.85;2.38;;;;;;;16.50;67.81;103457.22;20150577;29;20113;-88
2023/01/25 00:12:56;;;;;;;4.53;3.30;;;;;;;16.50;68.02;103449.16;20134513;29;20140;-88
2023/01/25 00:22:57;;;;;;;3.45;2.50;;;;;;;16.33;67.66;103413.09;20125754;29;20411;-88
2023/01/25 00:33:30;;;;;;;3.42;2.30;;;;;;;16.49;67.61;103447.41;20136425;29;20068;-88
2023/01/25 00:43:32;;;;;;;2.80;2.15;;;;;;;16.49;67.60;103447.41;20131868;29;20067;-88
2023/01/25 00:53:34;;;;;;;3.83;2.50;;;;;;;16.25;67.80;103404.47;20125383;29;20069;-89
2023/01/25 01:03:36;;;;;;;2.50;2.25;;;;;;;16.14;67.81;103366.44;20127679;29;20052;-88
2023/01/25 01:13:38;;;;;;;2.90;2.35;;;;;;;16.47;67.65;103415.19;20144958;29;20049;-88
2023/01/25 01:23:40;;;;;;;3.00;2.17;;;;;;;16.47;67.74;103412.50;20114993;29;20057;-88
2023/01/25 01:33:41;;;;;;;3.40;2.20;;;;;;;16.48;67.83;103413.41;20136983;29;20129;-88
2023/01/25 01:43:44;;;;;;;2.67;2.13;;;;;;;16.37;67.58;103390.53;20132584;29;20061;-86
2023/01/25 01:54:00;;;;;;;2.70;1.90;;;;;;;16.47;67.56;103395.50;20125807;29;20091;-86
2023/01/25 02:04:04;;;;;;;2.10;1.92;;;;;;;16.46;67.52;103402.69;20153027;29;20082;-88
2023/01/25 02:14:06;;;;;;;3.13;2.30;;;;;;;16.46;67.68;103381.19;20142965;29;20136;-88
2023/01/25 02:24:29;;;;;;;2.38;2.17;;;;;;;16.03;67.62;103300.59;20126023;29;20057;-88
2023/01/25 02:34:30;;;;;;;2.83;2.20;;;;;;;16.18;67.59;103319.66;20112393;29;20060;-88
2023/01/25 02:44:32;;;;;;;2.47;2.10;;;;;;;16.38;67.54;103335.81;20125416;29;20080;-88
2023/01/25 02:54:37;;;;;;;2.40;2.10;;;;;;;16.45;67.60;103349.84;20126787;29;20053;-88
2023/01/25 03:04:40;;;;;;;2.67;1.98;;;;;;;16.31;67.60;103318.19;20122882;29;20060;-88
2023/01/25 03:14:43;;;;;;;2.70;2.28;;;;;;;16.39;67.58;103317.88;20127397;29;20044;-87
2023/01/25 03:24:45;;;;;;;2.35;2.15;;;;;;;16.46;67.39;103319.34;20135518;29;20049;-88
2023/01/25 03:34:47;;;;;;;2.38;2.08;;;;;;;16.37;67.41;103285.69;20140636;29;20053;-89
2023/01/25 03:44:50;;;;;;;2.30;1.95;;;;;;;16.45;67.46;103284.47;20139696;29;20072;-89
2023/01/25 03:54:52;;;;;;;2.03;1.83;;;;;;;16.35;67.50;103262.50;20135056;29;20046;-88
2023/01/25 04:04:54;;;;;;;3.03;2.50;;;;;;;16.22;67.29;103236.16;20154207;29;20049;-88
2023/01/25 04:14:56;;;;;;;2.53;2.30;;;;;;;16.28;67.25;103235.00;20134193;29;20524;-88
2023/01/25 04:24:59;;;;;;;2.35;2.00;;;;;;;16.44;67.34;103267.44;20134098;29;20053;-88
2023/01/25 04:35:01;;;;;;;2.08;1.88;;;;;;;16.43;67.22;103271.06;20134241;29;20100;-88
2023/01/25 04:45:05;;;;;;;2.45;1.95;;;;;;;16.35;67.37;103251.72;20066657;29;20061;-89
2023/01/25 04:55:08;;;;;;;2.38;2.13;;;;;;;16.15;67.35;103206.94;20136973;29;20105;-88
2023/01/25 05:05:16;;;;;;;2.28;2.05;;;;;;;16.08;67.26;103185.72;20136065;29;20068;-88
2023/01/25 05:15:20;;;;;;;2.60;1.90;;;;;;;16.44;67.06;103245.09;20130292;29;20045;-89
2023/01/25 05:35:43;;;;;;;1.90;1.80;;;;;;;16.43;67.10;103221.81;20121396;29;20252;-88
2023/01/25 05:45:51;;;;;;;2.50;2.13;;;;;;;16.17;67.13;103205.03;20140063;29;20053;-89
2023/01/25 05:55:53;;;;;;;2.20;2.00;;;;;;;16.34;67.26;103229.34;20152152;29;20139;-88
2023/01/25 06:05:57;;;;;;;1.98;1.65;;;;;;;16.37;67.09;103222.97;20154538;29;20105;-89
2023/01/25 06:15:59;;;;;;;2.60;1.80;;;;;;;16.41;67.08;103239.84;20153225;29;20057;-89
2023/01/25 06:26:29;;;;;;;1.92;1.80;;;;;;;16.43;67.07;103243.34;20154922;29;20053;-88
2023/01/25 06:36:31;;;;;;;1.80;1.60;;;;;;;16.41;67.10;103229.09;20145195;29;20057;-89
2023/01/25 06:46:33;;;;;;;2.55;2.35;;;;;;;16.40;67.05;103228.19;20143399;29;20052;-90
2023/01/25 06:56:34;;;;;;;2.42;2.00;;;;;;;16.43;67.08;103219.13;20158101;29;20067;-94
2023/01/25 07:06:36;;;;;;;2.50;2.08;;;;;;;16.47;67.07;103212.69;20173134;29;20045;-95
2023/01/25 07:16:38;;;;;;;2.10;1.90;;;;;;;16.45;66.91;103187.69;20169116;29;20083;-94
2023/01/25 07:26:40;;;;;;;1.90;1.80;;;;;;;16.37;66.82;103162.03;20148420;29;20053;-94
2023/01/25 07:36:45;;;;;;;2.22;2.00;;;;;;;16.55;66.68;103189.00;20146761;29;20053;-92
2023/01/25 07:46:47;;;;;;;2.83;2.28;;;;;;;16.58;66.49;103201.44;20165049;29;20049;-92
2023/01/25 07:56:48;;;;;;;2.53;2.25;;;;;;;16.57;65.90;103184.41;20168371;29;20055;-92
2023/01/25 08:06:50;;;;;;;2.25;2.05;;;;;;;16.46;65.29;103146.41;20153635;29;20483;-92
2023/01/25 08:16:52;;;;;;;2.45;2.20;;;;;;;16.59;65.02;103174.44;20167303;29;20065;-93
2023/01/25 08:26:53;;;;;;;3.05;2.17;;;;;;;16.60;64.63;103170.81;20161086;29;20571;-90
2023/01/25 08:36:55;;;;;;;3.22;1.70;;;;;;;16.60;64.17;103159.22;20160706;29;20068;-90
2023/01/25 08:46:56;;;;;;;2.33;1.98;;;;;;;16.60;63.88;103143.94;20160907;29;20055;-90
2023/01/25 08:57:00;;;;;;;1.80;1.70;;;;;;;16.61;63.53;103142.97;20148247;29;20064;-90
2023/01/25 09:07:01;;;;;;;1.80;1.70;;;;;;;16.61;63.10;103134.91;20156939;29;20768;-90
2023/01/25 09:17:03;;;;;;;2.40;1.92;;;;;;;16.62;62.85;103131.28;20138868;29;20049;-90
2023/01/25 09:27:04;;;;;;;2.00;1.90;;;;;;;16.62;62.56;103125.03;20149650;29;20057;-91
2023/01/25 09:37:06;;;;;;;2.78;1.85;;;;;;;16.63;62.39;103103.44;20147352;29;20053;-90
2023/01/25 09:47:37;;;;;;;4.68;1.92;;;;;;;16.66;61.97;103097.91;20152327;29;20057;-91
2023/01/25 09:57:40;;;;;;;2.45;2.20;;;;;;;16.76;61.23;103084.00;20124135;29;20060;-92
2023/01/25 10:08:07;;;;;;;2.08;1.83;;;;;;;16.82;60.57;103094.50;20155103;29;20049;-93
2023/01/25 10:18:26;;;;;;;2.00;1.80;;;;;;;16.68;60.16;103030.59;20169723;29;20108;-92
2023/01/25 10:28:45;;;;;;;2.30;2.10;;;;;;;16.94;59.65;103066.06;20163151;29;20128;-92
2023/01/25 10:38:56;;;;;;;2.15;1.95;;;;;;;16.92;59.45;103044.66;20151946;29;20411;-92
2023/01/25 10:49:02;;;;;;;2.03;1.75;;;;;;;16.98;59.24;103029.16;20152849;29;20536;-91
2023/01/25 10:59:26;;;;;;;3.35;1.88;;;;;;;17.01;58.96;103004.78;20151468;29;20610;-92
2023/01/25 11:09:29;;;;;;;1.55;1.45;;;;;;;17.03;58.54;102984.06;20146102;29;21084;-92
2023/01/25 11:19:33;;;;;;;2.35;2.08;;;;;;;17.04;58.64;102980.41;20159395;29;20064;-91
2023/01/25 11:29:34;;;;;;;2.03;1.60;;;;;;;16.95;58.35;102931.47;20165632;29;20057;-92
2023/01/25 11:39:58;;;;;;;1.92;1.27;;;;;;;17.05;58.11;102915.75;20164971;29;20139;-92
2023/01/25 11:50:11;;;;;;;1.85;1.60;;;;;;;16.47;58.22;102788.72;20133129;29;20061;-92
2023/01/25 12:00:31;;;;;;;2.67;1.83;;;;;;;17.03;58.65;102874.63;20135179;29;20457;-88
2023/01/25 12:10:54;;;;;;;1.70;1.60;;;;;;;16.92;58.74;102840.16;20100978;29;20194;-90
2023/01/25 12:21:15;;;;;;;1.60;1.50;;;;;;;16.84;59.35;102818.19;20129506;29;20796;-89
2023/01/25 12:43:40;;;;;;;1.70;1.60;;;;;;;16.67;60.21;102776.06;20128882;29;20040;-92
2023/01/25 12:53:47;;;;;;;1.52;1.42;;;;;;;16.66;60.65;102760.88;20107274;29;20453;-91
2023/01/25 13:04:14;;;;;;;1.50;1.27;;;;;;;16.63;60.88;102747.59;20104634;29;20053;-90
2023/01/25 13:14:16;;;;;;;1.00;1.00;;;;;;;16.60;61.23;102735.19;20109315;29;20429;-89
2023/01/25 13:24:42;;;;;;;1.40;1.30;;;;;;;16.51;61.38;102706.97;20129289;29;20057;-90
2023/01/25 13:34:43;;;;;;;;;;;;;;;16.56;61.73;102717.47;20114579;29;20047;-89
2023/01/25 13:44:51;;;;;;;1.02;1.00;;;;;;;16.31;62.02;102648.03;20140885;29;20310;-89
2023/01/25 13:54:55;;;;;;;1.17;1.08;;;;;;;16.47;62.01;102672.28;20127813;29;20060;-90
2023/01/25 14:04:57;;;;;;;1.45;1.33;;;;;;;16.52;62.31;102672.88;20130350;29;20076;-89
2023/01/25 14:15:21;;;;;;;1.45;1.35;;;;;;;16.35;62.30;102645.13;20108413;29;20050;-87
2023/01/25 14:25:24;;;;;;;1.27;1.17;;;;;;;16.50;62.55;102677.50;20125063;29;20761;-86
2023/01/25 14:35:29;;;;;;;1.40;1.30;;;;;;;16.49;62.57;102665.00;20124395;29;20151;-87
2023/01/25 14:45:49;;;;;;;1.10;1.05;;;;;;;16.48;62.76;102663.25;20130754;29;20496;-86
2023/01/25 14:55:51;;;;;;;1.42;1.30;;;;;;;16.31;62.75;102635.47;20118544;29;20084;-84
2023/01/25 15:06:01;;;;;;;1.48;1.30;;;;;;;16.46;63.09;102625.69;20110793;29;20136;-86
2023/01/25 16:04:05;;;;;;;1.50;1.40;;;;;;;15.99;63.63;102530.63;20136358;29;20053;-87
2023/01/25 16:14:06;;;;;;;1.20;1.10;;;;;;;15.99;63.52;102527.94;20139839;29;20117;-86
2023/01/25 16:24:09;;;;;;;1.58;1.30;;;;;;;16.43;63.37;102590.06;20126511;29;20168;-87
2023/01/25 16:34:11;;;;;;;1.40;1.20;;;;;;;16.44;63.63;102586.44;20121782;29;20113;-86
2023/01/25 16:44:12;;;;;;;1.60;1.30;;;;;;;16.42;63.50;102564.13;20151609;29;20049;-87
2023/01/25 16:54:14;;;;;;;1.42;1.20;;;;;;;16.40;63.61;102542.72;20151719;29;20053;-87
2023/01/25 17:04:16;;;;;;;1.20;1.08;;;;;;;16.17;63.67;102490.25;20144548;29;20053;-87
2023/01/25 17:14:19;;;;;;;2.03;1.30;;;;;;;16.36;63.67;102490.06;20147262;29;20057;-88
2023/01/25 17:24:20;;;;;;;1.50;1.20;;;;;;;16.40;63.62;102466.59;20144164;29;20048;-92
2023/01/25 17:34:22;;;;;;;2.67;1.38;;;;;;;16.32;64.00;102415.97;20135728;29;20055;-91
2023/01/25 17:44:24;;;;;;;2.40;1.55;;;;;;;16.39;63.54;102414.66;20118005;29;20056;-95
2023/01/25 17:54:26;;;;;;;3.53;1.80;;;;;;;16.16;63.80;102362.22;20128452;29;21141;-94
2023/01/25 18:04:28;;;;;;;4.68;2.30;;;;;;;16.36;63.79;102382.56;20070101;29;1064655;-89
2023/01/25 18:14:30;;;;;;;3.95;1.95;;;;;;;16.36;63.80;102388.81;20102745;29;20075;-90
2023/01/25 18:24:33;;;;;;;4.43;2.33;;;;;;;16.36;63.86;102358.38;20094210;29;20539;-91
2023/01/25 18:34:34;;;;;;;5.00;2.22;;;;;;;16.29;63.57;102355.19;20141396;29;20057;-91
2023/01/25 18:44:36;;;;;;;5.57;2.38;;;;;;;16.35;63.60;102349.47;20136554;29;20460;-85
2023/01/25 18:54:38;;;;;;;3.95;2.28;;;;;;;16.35;63.59;102336.03;20130756;29;20057;-83
2023/01/25 19:04:39;;;;;;;4.68;2.42;;;;;;;16.35;63.54;102338.72;20132330;29;20109;-90
2023/01/25 19:14:41;;;;;;;5.30;2.88;;;;;;;16.35;63.70;102349.47;20136481;29;20495;-88
2023/01/25 19:24:42;;;;;;;5.90;2.40;;;;;;;16.35;63.74;102327.09;20127943;29;20124;-88
2023/01/25 19:34:44;;;;;;;4.10;2.65;;;;;;;16.36;63.60;102321.63;20150584;29;20511;-89
2023/01/25 19:44:46;;;;;;;6.45;3.15;;;;;;;16.28;63.63;102293.47;20140586;29;20085;-93
2023/01/25 19:54:48;;;;;;;4.38;2.63;;;;;;;16.33;63.68;102291.38;20154309;29;20519;-93
2023/01/25 20:04:50;;;;;;;4.40;2.60;;;;;;;16.19;63.50;102249.19;20142655;29;20496;-94
2023/01/25 20:14:52;;;;;;;4.13;2.50;;;;;;;16.33;63.56;102269.88;20085651;29;20053;-93
2023/01/25 20:24:54;;;;;;;3.90;2.60;;;;;;;16.33;63.68;102269.88;20128594;29;20045;-93
2023/01/25 20:34:55;;;;;;;4.57;2.70;;;;;;;16.33;63.55;102264.50;20127089;29;20132;-93
2023/01/25 20:44:57;;;;;;;4.63;2.63;;;;;;;16.25;63.49;102232.69;20152804;29;20056;-94
2023/01/25 20:54:58;;;;;;;4.85;2.65;;;;;;;16.31;63.35;102259.19;20148232;29;20057;-93
2023/01/25 21:05:00;;;;;;;5.05;3.28;;;;;;;16.18;63.40;102234.91;20160244;29;20053;-84
2023/01/25 21:15:02;;;;;;;4.28;2.53;;;;;;;16.31;63.55;102252.97;20158464;29;20053;-94
2023/01/25 21:25:04;;;;;;;4.30;2.40;;;;;;;16.23;63.45;102229.25;20134600;29;20053;-94
2023/01/25 21:35:06;;;;;;;4.00;2.50;;;;;;;16.31;63.42;102234.16;20136090;29;20045;-92
2023/01/25 21:55:29;;;;;;;4.40;2.33;;;;;;;16.30;63.33;102222.53;20148651;29;20045;-94
2023/01/25 22:05:30;;;;;;;3.03;2.13;;;;;;;16.30;63.47;102211.78;20152491;29;20069;-94
2023/01/25 22:15:32;;;;;;;2.72;2.30;;;;;;;16.30;63.50;102206.41;20145981;29;20148;-93
2023/01/25 22:25:34;;;;;;;2.65;1.80;;;;;;;16.30;63.35;102206.41;20150860;29;20071;-93
2023/01/25 22:35:36;;;;;;;3.17;2.00;;;;;;;16.15;63.50;102167.94;20161411;29;20057;-94
2023/01/25 22:45:37;;;;;;;2.33;2.00;;;;;;;16.29;63.43;102177.81;20163317;29;20068;-93
2023/01/25 22:55:39;;;;;;;3.33;2.10;;;;;;;16.29;63.17;102172.44;20164141;29;20049;-94
2023/01/25 23:05:40;;;;;;;2.28;1.77;;;;;;;16.29;63.37;102167.06;20166748;29;20411;-93
2023/01/25 23:15:42;;;;;;;2.47;1.75;;;;;;;15.89;63.34;102094.28;20167687;29;20097;-93
2023/01/25 23:25:45;;;;;;;2.72;2.13;;;;;;;16.22;63.37;102133.47;20163521;29;20088;-91
2023/01/25 23:35:46;;;;;;;2.63;2.03;;;;;;;16.22;63.22;102125.41;20160966;29;20083;-91
2023/01/25 23:45:48;;;;;;;2.67;1.95;;;;;;;16.28;63.14;102138.47;20161075;29;20080;-95
2023/01/25 23:55:59;;;;;;;2.88;1.73;;;;;;;16.27;63.24;102125.97;20160134;29;20071;-94
